sensor_id;sensor_type;location;lat;lon;timestamp;temperature;humidity
25208;DHT22;13153;52.316;21.166;2023-03-30T00:00:06;5.20;74.30
25208;DHT22;13153;52.316;21.166;2023-03-30T00:02:46;5.20;74.60
25208;DHT22;13153;52.316;21.166;2023-03-30T00:05:14;5.20;74.90
25208;DHT22;13153;52.316;21.166;2023-03-30T00:07:40;5.20;75.10
25208;DHT22;13153;52.316;21.166;2023-03-30T00:10:11;5.20;75.40
25208;DHT22;13153;52.316;21.166;2023-03-30T00:12:39;5.20;75.50
25208;DHT22;13153;52.316;21.166;2023-03-30T00:15:10;5.20;75.80
25208;DHT22;13153;52.316;21.166;2023-03-30T00:17:37;5.20;76.00
25208;DHT22;13153;52.316;21.166;2023-03-30T00:20:03;5.10;76.10
25208;DHT22;13153;52.316;21.166;2023-03-30T00:22:34;5.20;76.40
25208;DHT22;13153;52.316;21.166;2023-03-30T00:24:59;5.20;76.60
25208;DHT22;13153;52.316;21.166;2023-03-30T00:27:25;5.20;76.80
25208;DHT22;13153;52.316;21.166;2023-03-30T00:29:51;5.20;77.00
25208;DHT22;13153;52.316;21.166;2023-03-30T00:32:17;5.20;77.40
25208;DHT22;13153;52.316;21.166;2023-03-30T00:34:43;5.20;77.50
25208;DHT22;13153;52.316;21.166;2023-03-30T00:37:08;5.20;77.80
25208;DHT22;13153;52.316;21.166;2023-03-30T00:39:36;5.20;77.90
25208;DHT22;13153;52.316;21.166;2023-03-30T00:42:01;5.20;78.00
25208;DHT22;13153;52.316;21.166;2023-03-30T00:47:42;5.20;78.70
25208;DHT22;13153;52.316;21.166;2023-03-30T00:50:13;5.20;79.00
25208;DHT22;13153;52.316;21.166;2023-03-30T00:52:42;5.20;79.20
25208;DHT22;13153;52.316;21.166;2023-03-30T00:55:10;5.20;79.60
25208;DHT22;13153;52.316;21.166;2023-03-30T00:57:39;5.20;79.70
25208;DHT22;13153;52.316;21.166;2023-03-30T01:00:08;5.20;80.20
25208;DHT22;13153;52.316;21.166;2023-03-30T01:02:41;5.10;80.50
25208;DHT22;13153;52.316;21.166;2023-03-30T01:05:11;5.20;81.00
25208;DHT22;13153;52.316;21.166;2023-03-30T01:07:38;5.10;81.10
25208;DHT22;13153;52.316;21.166;2023-03-30T01:10:07;5.10;81.40
25208;DHT22;13153;52.316;21.166;2023-03-30T01:12:34;5.20;81.70
25208;DHT22;13153;52.316;21.166;2023-03-30T01:14:59;5.20;81.90
25208;DHT22;13153;52.316;21.166;2023-03-30T01:17:31;5.10;82.10
25208;DHT22;13153;52.316;21.166;2023-03-30T01:20:37;5.20;82.40
25208;DHT22;13153;52.316;21.166;2023-03-30T01:37:48;5.10;84.10
25208;DHT22;13153;52.316;21.166;2023-03-30T01:40:43;5.10;84.40
25208;DHT22;13153;52.316;21.166;2023-03-30T01:43:47;5.10;84.70
25208;DHT22;13153;52.316;21.166;2023-03-30T01:46:37;5.10;85.10
25208;DHT22;13153;52.316;21.166;2023-03-30T01:49:18;5.10;85.50
25208;DHT22;13153;52.316;21.166;2023-03-30T01:52:18;5.10;85.90
25208;DHT22;13153;52.316;21.166;2023-03-30T01:57:40;5.10;86.40
25208;DHT22;13153;52.316;21.166;2023-03-30T02:00:19;5.10;86.80
25208;DHT22;13153;52.316;21.166;2023-03-30T02:02:52;5.10;87.10
25208;DHT22;13153;52.316;21.166;2023-03-30T02:05:22;5.10;87.50
25208;DHT22;13153;52.316;21.166;2023-03-30T02:08:06;5.10;87.80
25208;DHT22;13153;52.316;21.166;2023-03-30T02:10:35;5.10;88.20
25208;DHT22;13153;52.316;21.166;2023-03-30T02:13:04;5.10;88.50
25208;DHT22;13153;52.316;21.166;2023-03-30T02:15:39;5.10;88.90
25208;DHT22;13153;52.316;21.166;2023-03-30T02:18:10;5.20;89.20
25208;DHT22;13153;52.316;21.166;2023-03-30T02:20:37;5.20;89.80
25208;DHT22;13153;52.316;21.166;2023-03-30T02:23:04;5.20;90.00
25208;DHT22;13153;52.316;21.166;2023-03-30T02:25:32;5.10;90.20
25208;DHT22;13153;52.316;21.166;2023-03-30T02:28:05;5.10;90.40
25208;DHT22;13153;52.316;21.166;2023-03-30T02:30:33;5.20;90.60
25208;DHT22;13153;52.316;21.166;2023-03-30T02:33:04;5.20;90.70
25208;DHT22;13153;52.316;21.166;2023-03-30T02:41:55;5.20;91.20
25208;DHT22;13153;52.316;21.166;2023-03-30T02:47:45;5.20;91.60
25208;DHT22;13153;52.316;21.166;2023-03-30T02:50:37;5.20;91.90
25208;DHT22;13153;52.316;21.166;2023-03-30T02:56:32;5.20;92.30
25208;DHT22;13153;52.316;21.166;2023-03-30T02:59:12;5.20;92.40
25208;DHT22;13153;52.316;21.166;2023-03-30T03:01:51;5.20;92.70
25208;DHT22;13153;52.316;21.166;2023-03-30T03:04:23;5.20;93.00
25208;DHT22;13153;52.316;21.166;2023-03-30T03:06:53;5.20;93.20
25208;DHT22;13153;52.316;21.166;2023-03-30T03:09:20;5.20;93.40
25208;DHT22;13153;52.316;21.166;2023-03-30T03:11:50;5.20;93.60
25208;DHT22;13153;52.316;21.166;2023-03-30T03:14:16;5.20;93.90
25208;DHT22;13153;52.316;21.166;2023-03-30T03:16:42;5.20;94.00
25208;DHT22;13153;52.316;21.166;2023-03-30T03:19:08;5.20;94.20
25208;DHT22;13153;52.316;21.166;2023-03-30T03:21:35;5.20;94.40
25208;DHT22;13153;52.316;21.166;2023-03-30T03:24:02;5.20;94.60
25208;DHT22;13153;52.316;21.166;2023-03-30T03:26:29;5.20;94.90
25208;DHT22;13153;52.316;21.166;2023-03-30T03:28:55;5.20;95.10
25208;DHT22;13153;52.316;21.166;2023-03-30T03:31:21;5.20;95.30
25208;DHT22;13153;52.316;21.166;2023-03-30T03:33:48;5.20;95.50
25208;DHT22;13153;52.316;21.166;2023-03-30T03:36:15;5.20;95.70
25208;DHT22;13153;52.316;21.166;2023-03-30T03:38:41;5.20;96.00
25208;DHT22;13153;52.316;21.166;2023-03-30T03:41:07;5.20;96.20
25208;DHT22;13153;52.316;21.166;2023-03-30T03:43:34;5.20;96.30
25208;DHT22;13153;52.316;21.166;2023-03-30T03:46:01;5.20;96.50
25208;DHT22;13153;52.316;21.166;2023-03-30T03:48:26;5.20;96.80
25208;DHT22;13153;52.316;21.166;2023-03-30T03:50:55;5.20;97.00
25208;DHT22;13153;52.316;21.166;2023-03-30T03:53:24;5.20;97.30
25208;DHT22;13153;52.316;21.166;2023-03-30T03:55:52;5.20;97.50
25208;DHT22;13153;52.316;21.166;2023-03-30T03:58:19;5.10;97.80
25208;DHT22;13153;52.316;21.166;2023-03-30T04:00:46;5.10;98.00
25208;DHT22;13153;52.316;21.166;2023-03-30T04:03:12;5.20;98.50
25208;DHT22;13153;52.316;21.166;2023-03-30T04:05:39;5.10;98.70
25208;DHT22;13153;52.316;21.166;2023-03-30T04:08:06;5.20;99.00
25208;DHT22;13153;52.316;21.166;2023-03-30T04:10:39;5.10;99.40
25208;DHT22;13153;52.316;21.166;2023-03-30T04:13:06;5.10;99.70
25208;DHT22;13153;52.316;21.166;2023-03-30T04:15:32;5.10;99.90
25208;DHT22;13153;52.316;21.166;2023-03-30T04:17:58;5.10;99.90
25208;DHT22;13153;52.316;21.166;2023-03-30T04:20:28;5.10;99.90
25208;DHT22;13153;52.316;21.166;2023-03-30T04:22:54;5.10;99.90
25208;DHT22;13153;52.316;21.166;2023-03-30T04:25:22;5.10;99.90
25208;DHT22;13153;52.316;21.166;2023-03-30T04:27:53;5.10;99.90
25208;DHT22;13153;52.316;21.166;2023-03-30T04:30:21;5.10;99.90
25208;DHT22;13153;52.316;21.166;2023-03-30T04:32:48;5.10;99.90
25208;DHT22;13153;52.316;21.166;2023-03-30T04:35:31;5.10;99.90
25208;DHT22;13153;52.316;21.166;2023-03-30T04:37:58;5.10;99.90
25208;DHT22;13153;52.316;21.166;2023-03-30T04:40:26;5.20;99.90
25208;DHT22;13153;52.316;21.166;2023-03-30T04:42:52;5.20;99.90
25208;DHT22;13153;52.316;21.166;2023-03-30T04:45:18;5.20;99.90
25208;DHT22;13153;52.316;21.166;2023-03-30T04:47:45;5.20;99.90
25208;DHT22;13153;52.316;21.166;2023-03-30T04:50:12;5.30;99.90
25208;DHT22;13153;52.316;21.166;2023-03-30T04:52:38;5.30;99.90
25208;DHT22;13153;52.316;21.166;2023-03-30T04:55:04;5.40;99.90
25208;DHT22;13153;52.316;21.166;2023-03-30T04:57:30;5.30;99.90
25208;DHT22;13153;52.316;21.166;2023-03-30T04:59:56;5.40;99.90
25208;DHT22;13153;52.316;21.166;2023-03-30T05:02:22;5.40;99.90
25208;DHT22;13153;52.316;21.166;2023-03-30T05:04:47;5.40;99.90
25208;DHT22;13153;52.316;21.166;2023-03-30T05:07:13;5.50;99.90
25208;DHT22;13153;52.316;21.166;2023-03-30T05:09:39;5.50;99.90
25208;DHT22;13153;52.316;21.166;2023-03-30T05:12:05;5.50;99.90
25208;DHT22;13153;52.316;21.166;2023-03-30T05:14:31;5.60;99.90
25208;DHT22;13153;52.316;21.166;2023-03-30T05:16:57;5.60;99.90
25208;DHT22;13153;52.316;21.166;2023-03-30T05:19:23;5.60;99.90
25208;DHT22;13153;52.316;21.166;2023-03-30T05:21:49;5.60;99.90
25208;DHT22;13153;52.316;21.166;2023-03-30T05:24:15;5.70;99.90
25208;DHT22;13153;52.316;21.166;2023-03-30T05:26:41;5.70;99.90
25208;DHT22;13153;52.316;21.166;2023-03-30T05:29:07;5.80;99.90
25208;DHT22;13153;52.316;21.166;2023-03-30T05:31:33;5.80;99.90
25208;DHT22;13153;52.316;21.166;2023-03-30T05:33:59;5.90;99.90
25208;DHT22;13153;52.316;21.166;2023-03-30T05:36:24;5.90;99.90
25208;DHT22;13153;52.316;21.166;2023-03-30T05:38:50;5.90;99.90
25208;DHT22;13153;52.316;21.166;2023-03-30T05:41:16;6.00;99.90
25208;DHT22;13153;52.316;21.166;2023-03-30T05:43:42;6.00;99.90
25208;DHT22;13153;52.316;21.166;2023-03-30T05:46:08;6.00;99.90
25208;DHT22;13153;52.316;21.166;2023-03-30T05:48:34;6.10;99.90
25208;DHT22;13153;52.316;21.166;2023-03-30T05:51:00;6.10;99.90
25208;DHT22;13153;52.316;21.166;2023-03-30T05:53:26;6.10;99.90
25208;DHT22;13153;52.316;21.166;2023-03-30T05:55:52;6.10;99.90
25208;DHT22;13153;52.316;21.166;2023-03-30T05:58:17;6.10;99.90
25208;DHT22;13153;52.316;21.166;2023-03-30T06:00:44;6.20;99.90
25208;DHT22;13153;52.316;21.166;2023-03-30T06:03:10;6.10;99.90
25208;DHT22;13153;52.316;21.166;2023-03-30T06:05:37;6.10;99.90
25208;DHT22;13153;52.316;21.166;2023-03-30T06:08:05;6.20;99.90
25208;DHT22;13153;52.316;21.166;2023-03-30T06:10:32;6.30;99.90
25208;DHT22;13153;52.316;21.166;2023-03-30T06:12:59;6.30;99.90
25208;DHT22;13153;52.316;21.166;2023-03-30T06:15:25;6.40;99.90
25208;DHT22;13153;52.316;21.166;2023-03-30T06:17:51;6.50;99.90
25208;DHT22;13153;52.316;21.166;2023-03-30T06:20:18;6.60;99.90
25208;DHT22;13153;52.316;21.166;2023-03-30T06:22:48;6.70;99.90
25208;DHT22;13153;52.316;21.166;2023-03-30T06:25:15;6.70;99.90
25208;DHT22;13153;52.316;21.166;2023-03-30T06:27:41;6.80;99.90
25208;DHT22;13153;52.316;21.166;2023-03-30T06:30:07;6.80;99.90
25208;DHT22;13153;52.316;21.166;2023-03-30T06:32:36;6.90;99.90
25208;DHT22;13153;52.316;21.166;2023-03-30T06:35:03;7.00;99.90
25208;DHT22;13153;52.316;21.166;2023-03-30T06:37:33;7.10;99.90
25208;DHT22;13153;52.316;21.166;2023-03-30T06:40:01;7.20;99.90
25208;DHT22;13153;52.316;21.166;2023-03-30T06:42:41;7.20;99.90
25208;DHT22;13153;52.316;21.166;2023-03-30T06:45:12;7.20;99.90
25208;DHT22;13153;52.316;21.166;2023-03-30T06:47:39;7.10;99.90
25208;DHT22;13153;52.316;21.166;2023-03-30T06:50:08;7.10;99.90
25208;DHT22;13153;52.316;21.166;2023-03-30T06:52:35;7.10;99.90
25208;DHT22;13153;52.316;21.166;2023-03-30T06:55:03;7.10;99.90
25208;DHT22;13153;52.316;21.166;2023-03-30T06:57:29;7.20;99.90
25208;DHT22;13153;52.316;21.166;2023-03-30T06:59:56;7.20;99.90
25208;DHT22;13153;52.316;21.166;2023-03-30T07:02:22;7.30;99.90
25208;DHT22;13153;52.316;21.166;2023-03-30T07:04:50;7.30;99.90
25208;DHT22;13153;52.316;21.166;2023-03-30T07:07:17;7.40;99.90
25208;DHT22;13153;52.316;21.166;2023-03-30T07:09:44;7.50;99.90
25208;DHT22;13153;52.316;21.166;2023-03-30T07:12:10;7.50;99.90
25208;DHT22;13153;52.316;21.166;2023-03-30T07:14:36;7.50;99.90
25208;DHT22;13153;52.316;21.166;2023-03-30T07:17:01;7.60;99.90
25208;DHT22;13153;52.316;21.166;2023-03-30T07:19:27;7.70;99.90
25208;DHT22;13153;52.316;21.166;2023-03-30T07:21:53;7.80;99.90
25208;DHT22;13153;52.316;21.166;2023-03-30T07:24:19;7.90;99.90
25208;DHT22;13153;52.316;21.166;2023-03-30T07:26:45;8.00;99.90
25208;DHT22;13153;52.316;21.166;2023-03-30T07:29:11;8.10;99.90
25208;DHT22;13153;52.316;21.166;2023-03-30T07:31:37;8.20;99.90
25208;DHT22;13153;52.316;21.166;2023-03-30T07:34:03;8.20;99.90
25208;DHT22;13153;52.316;21.166;2023-03-30T07:36:28;8.20;99.90
25208;DHT22;13153;52.316;21.166;2023-03-30T07:38:54;8.20;99.90
25208;DHT22;13153;52.316;21.166;2023-03-30T07:41:22;8.10;99.90
25208;DHT22;13153;52.316;21.166;2023-03-30T07:43:48;8.10;99.90
25208;DHT22;13153;52.316;21.166;2023-03-30T07:46:14;8.00;99.90
25208;DHT22;13153;52.316;21.166;2023-03-30T07:48:40;7.90;99.90
25208;DHT22;13153;52.316;21.166;2023-03-30T07:51:08;7.80;99.90
25208;DHT22;13153;52.316;21.166;2023-03-30T07:53:36;7.80;99.90
25208;DHT22;13153;52.316;21.166;2023-03-30T07:56:03;7.70;99.90
25208;DHT22;13153;52.316;21.166;2023-03-30T07:58:30;7.70;99.90
25208;DHT22;13153;52.316;21.166;2023-03-30T08:00:56;7.60;99.90
25208;DHT22;13153;52.316;21.166;2023-03-30T08:03:22;7.60;99.90
25208;DHT22;13153;52.316;21.166;2023-03-30T08:05:57;7.60;99.90
25208;DHT22;13153;52.316;21.166;2023-03-30T08:08:26;7.60;99.90
25208;DHT22;13153;52.316;21.166;2023-03-30T08:10:52;7.60;99.90
25208;DHT22;13153;52.316;21.166;2023-03-30T08:13:18;7.60;99.90
25208;DHT22;13153;52.316;21.166;2023-03-30T08:15:45;7.60;99.90
25208;DHT22;13153;52.316;21.166;2023-03-30T08:18:11;7.60;99.90
25208;DHT22;13153;52.316;21.166;2023-03-30T08:20:39;7.60;99.90
25208;DHT22;13153;52.316;21.166;2023-03-30T08:23:07;7.50;99.90
25208;DHT22;13153;52.316;21.166;2023-03-30T08:25:35;7.60;99.90
25208;DHT22;13153;52.316;21.166;2023-03-30T08:28:02;7.60;99.90
25208;DHT22;13153;52.316;21.166;2023-03-30T08:30:30;7.60;99.90
25208;DHT22;13153;52.316;21.166;2023-03-30T08:32:56;7.70;99.90
25208;DHT22;13153;52.316;21.166;2023-03-30T08:35:23;7.80;99.90
25208;DHT22;13153;52.316;21.166;2023-03-30T08:37:49;7.90;99.90
25208;DHT22;13153;52.316;21.166;2023-03-30T08:40:16;7.90;99.90
25208;DHT22;13153;52.316;21.166;2023-03-30T08:45:58;8.00;99.90
25208;DHT22;13153;52.316;21.166;2023-03-30T08:48:29;8.10;99.90
25208;DHT22;13153;52.316;21.166;2023-03-30T08:51:07;8.20;99.90
25208;DHT22;13153;52.316;21.166;2023-03-30T08:53:42;8.40;99.90
25208;DHT22;13153;52.316;21.166;2023-03-30T08:56:24;8.50;99.90
25208;DHT22;13153;52.316;21.166;2023-03-30T09:01:50;8.70;99.90
25208;DHT22;13153;52.316;21.166;2023-03-30T09:07:17;8.70;99.90
25208;DHT22;13153;52.316;21.166;2023-03-30T09:09:47;8.60;99.90
25208;DHT22;13153;52.316;21.166;2023-03-30T09:12:45;8.60;99.90
25208;DHT22;13153;52.316;21.166;2023-03-30T09:15:17;8.60;99.90
25208;DHT22;13153;52.316;21.166;2023-03-30T09:17:48;8.60;99.90
25208;DHT22;13153;52.316;21.166;2023-03-30T09:20:22;8.60;99.90
25208;DHT22;13153;52.316;21.166;2023-03-30T09:22:53;8.60;99.90
25208;DHT22;13153;52.316;21.166;2023-03-30T09:28:23;8.60;99.90
25208;DHT22;13153;52.316;21.166;2023-03-30T09:33:58;8.60;99.90
25208;DHT22;13153;52.316;21.166;2023-03-30T09:37:04;8.50;99.90
25208;DHT22;13153;52.316;21.166;2023-03-30T09:39:38;8.50;99.90
25208;DHT22;13153;52.316;21.166;2023-03-30T09:44:58;8.50;99.90
25208;DHT22;13153;52.316;21.166;2023-03-30T09:47:38;8.50;99.90
25208;DHT22;13153;52.316;21.166;2023-03-30T09:50:15;8.50;99.90
25208;DHT22;13153;52.316;21.166;2023-03-30T09:52:59;8.50;99.90
25208;DHT22;13153;52.316;21.166;2023-03-30T09:55:34;8.40;99.90
25208;DHT22;13153;52.316;21.166;2023-03-30T09:58:32;8.40;99.90
25208;DHT22;13153;52.316;21.166;2023-03-30T10:01:18;8.50;99.90
25208;DHT22;13153;52.316;21.166;2023-03-30T10:04:05;8.50;99.90
25208;DHT22;13153;52.316;21.166;2023-03-30T10:06:47;8.60;99.90
25208;DHT22;13153;52.316;21.166;2023-03-30T10:09:17;8.70;99.90
25208;DHT22;13153;52.316;21.166;2023-03-30T10:11:48;8.70;99.90
25208;DHT22;13153;52.316;21.166;2023-03-30T10:14:33;8.80;99.90
25208;DHT22;13153;52.316;21.166;2023-03-30T10:17:01;8.80;99.90
25208;DHT22;13153;52.316;21.166;2023-03-30T10:19:29;8.90;99.90
25208;DHT22;13153;52.316;21.166;2023-03-30T10:21:59;8.90;99.90
25208;DHT22;13153;52.316;21.166;2023-03-30T10:24:30;8.90;99.90
25208;DHT22;13153;52.316;21.166;2023-03-30T10:27:08;9.00;99.90
25208;DHT22;13153;52.316;21.166;2023-03-30T10:29:37;9.20;99.90
25208;DHT22;13153;52.316;21.166;2023-03-30T10:32:17;9.30;99.90
25208;DHT22;13153;52.316;21.166;2023-03-30T10:34:51;9.50;99.90
25208;DHT22;13153;52.316;21.166;2023-03-30T10:37:34;9.70;99.90
25208;DHT22;13153;52.316;21.166;2023-03-30T10:40:20;9.80;99.90
25208;DHT22;13153;52.316;21.166;2023-03-30T10:43:33;10.00;99.90
25208;DHT22;13153;52.316;21.166;2023-03-30T10:46:11;10.30;99.90
25208;DHT22;13153;52.316;21.166;2023-03-30T10:48:52;10.50;99.90
25208;DHT22;13153;52.316;21.166;2023-03-30T10:51:58;10.70;99.90
25208;DHT22;13153;52.316;21.166;2023-03-30T10:57:17;10.80;99.90
25208;DHT22;13153;52.316;21.166;2023-03-30T11:02:43;10.80;99.90
25208;DHT22;13153;52.316;21.166;2023-03-30T11:05:23;10.80;99.90
25208;DHT22;13153;52.316;21.166;2023-03-30T11:08:02;10.90;99.90
25208;DHT22;13153;52.316;21.166;2023-03-30T11:10:37;10.90;99.90
25208;DHT22;13153;52.316;21.166;2023-03-30T11:13:21;10.90;99.90
25208;DHT22;13153;52.316;21.166;2023-03-30T11:15:53;11.00;99.90
25208;DHT22;13153;52.316;21.166;2023-03-30T11:21:14;10.90;99.90
25208;DHT22;13153;52.316;21.166;2023-03-30T11:23:52;10.90;99.90
25208;DHT22;13153;52.316;21.166;2023-03-30T11:26:41;11.00;99.90
25208;DHT22;13153;52.316;21.166;2023-03-30T11:29:41;11.10;99.90
25208;DHT22;13153;52.316;21.166;2023-03-30T11:38:43;11.40;99.90
25208;DHT22;13153;52.316;21.166;2023-03-30T11:41:23;11.60;99.90
25208;DHT22;13153;52.316;21.166;2023-03-30T11:43:55;11.60;99.90
25208;DHT22;13153;52.316;21.166;2023-03-30T11:47:00;11.70;99.90
25208;DHT22;13153;52.316;21.166;2023-03-30T11:52:24;11.80;99.90
25208;DHT22;13153;52.316;21.166;2023-03-30T11:55:07;11.90;99.90
25208;DHT22;13153;52.316;21.166;2023-03-30T12:01:09;11.90;99.90
25208;DHT22;13153;52.316;21.166;2023-03-30T12:03:58;11.90;99.90
25208;DHT22;13153;52.316;21.166;2023-03-30T12:06:35;12.00;99.90
25208;DHT22;13153;52.316;21.166;2023-03-30T12:34:32;12.00;99.90
25208;DHT22;13153;52.316;21.166;2023-03-30T12:37:04;12.00;99.90
25208;DHT22;13153;52.316;21.166;2023-03-30T12:39:41;12.10;99.90
25208;DHT22;13153;52.316;21.166;2023-03-30T12:42:26;12.10;99.90
25208;DHT22;13153;52.316;21.166;2023-03-30T12:50:33;12.30;99.90
25208;DHT22;13153;52.316;21.166;2023-03-30T12:56:05;12.40;99.90
25208;DHT22;13153;52.316;21.166;2023-03-30T13:04:52;12.70;99.90
25208;DHT22;13153;52.316;21.166;2023-03-30T13:07:28;12.80;99.90
25208;DHT22;13153;52.316;21.166;2023-03-30T13:11:00;12.80;99.90
25208;DHT22;13153;52.316;21.166;2023-03-30T13:13:17;12.80;99.90
25208;DHT22;13153;52.316;21.166;2023-03-30T13:15:53;12.80;99.90
25208;DHT22;13153;52.316;21.166;2023-03-30T13:18:25;12.70;99.90
25208;DHT22;13153;52.316;21.166;2023-03-30T13:21:15;12.70;99.90
25208;DHT22;13153;52.316;21.166;2023-03-30T13:23:43;12.60;99.90
25208;DHT22;13153;52.316;21.166;2023-03-30T13:26:24;12.50;99.90
25208;DHT22;13153;52.316;21.166;2023-03-30T13:29:09;12.30;99.90
25208;DHT22;13153;52.316;21.166;2023-03-30T13:31:57;12.20;99.90
25208;DHT22;13153;52.316;21.166;2023-03-30T13:39:48;11.90;99.90
25208;DHT22;13153;52.316;21.166;2023-03-30T13:45:47;11.80;99.90
25208;DHT22;13153;52.316;21.166;2023-03-30T13:51:27;11.80;99.90
25208;DHT22;13153;52.316;21.166;2023-03-30T13:54:00;11.70;99.90
25208;DHT22;13153;52.316;21.166;2023-03-30T13:56:32;11.70;99.90
25208;DHT22;13153;52.316;21.166;2023-03-30T13:59:05;11.80;99.90
25208;DHT22;13153;52.316;21.166;2023-03-30T14:01:37;11.80;99.90
25208;DHT22;13153;52.316;21.166;2023-03-30T14:04:07;11.80;99.90
25208;DHT22;13153;52.316;21.166;2023-03-30T14:06:42;11.70;99.90
25208;DHT22;13153;52.316;21.166;2023-03-30T14:09:13;11.70;99.90
25208;DHT22;13153;52.316;21.166;2023-03-30T14:11:53;11.70;99.90
25208;DHT22;13153;52.316;21.166;2023-03-30T14:16:59;11.80;99.90
25208;DHT22;13153;52.316;21.166;2023-03-30T14:19:28;11.90;99.90
25208;DHT22;13153;52.316;21.166;2023-03-30T14:22:19;11.90;99.90
25208;DHT22;13153;52.316;21.166;2023-03-30T14:25:04;12.00;99.90
25208;DHT22;13153;52.316;21.166;2023-03-30T14:27:36;12.10;99.90
25208;DHT22;13153;52.316;21.166;2023-03-30T14:30:21;12.10;99.90
25208;DHT22;13153;52.316;21.166;2023-03-30T14:33:13;12.20;99.90
25208;DHT22;13153;52.316;21.166;2023-03-30T14:35:47;12.30;99.90
25208;DHT22;13153;52.316;21.166;2023-03-30T14:38:39;12.40;99.90
25208;DHT22;13153;52.316;21.166;2023-03-30T14:41:09;12.40;99.90
25208;DHT22;13153;52.316;21.166;2023-03-30T14:44:03;12.40;99.90
25208;DHT22;13153;52.316;21.166;2023-03-30T14:46:42;12.50;99.90
25208;DHT22;13153;52.316;21.166;2023-03-30T14:49:22;12.50;99.90
25208;DHT22;13153;52.316;21.166;2023-03-30T14:51:59;12.60;99.90
25208;DHT22;13153;52.316;21.166;2023-03-30T14:54:27;12.70;99.90
25208;DHT22;13153;52.316;21.166;2023-03-30T14:57:01;12.60;99.90
25208;DHT22;13153;52.316;21.166;2023-03-30T14:59:32;12.70;99.90
25208;DHT22;13153;52.316;21.166;2023-03-30T15:02:01;12.60;99.90
25208;DHT22;13153;52.316;21.166;2023-03-30T15:04:35;12.60;99.90
25208;DHT22;13153;52.316;21.166;2023-03-30T15:07:02;12.50;99.90
25208;DHT22;13153;52.316;21.166;2023-03-30T15:09:36;12.40;99.90
25208;DHT22;13153;52.316;21.166;2023-03-30T15:12:04;12.40;99.90
25208;DHT22;13153;52.316;21.166;2023-03-30T15:14:36;12.30;99.90
25208;DHT22;13153;52.316;21.166;2023-03-30T15:17:10;12.20;99.90
25208;DHT22;13153;52.316;21.166;2023-03-30T15:19:42;12.20;99.90
25208;DHT22;13153;52.316;21.166;2023-03-30T15:25:00;12.10;99.90
25208;DHT22;13153;52.316;21.166;2023-03-30T15:27:31;12.00;99.90
25208;DHT22;13153;52.316;21.166;2023-03-30T15:30:00;12.00;99.90
25208;DHT22;13153;52.316;21.166;2023-03-30T15:32:34;12.00;99.90
25208;DHT22;13153;52.316;21.166;2023-03-30T15:37:38;11.90;99.90
25208;DHT22;13153;52.316;21.166;2023-03-30T15:40:37;11.80;99.90
25208;DHT22;13153;52.316;21.166;2023-03-30T15:43:19;11.80;99.90
25208;DHT22;13153;52.316;21.166;2023-03-30T15:48:27;11.60;99.90
25208;DHT22;13153;52.316;21.166;2023-03-30T15:51:04;11.60;99.90
25208;DHT22;13153;52.316;21.166;2023-03-30T15:54:00;11.50;99.90
25208;DHT22;13153;52.316;21.166;2023-03-30T15:56:37;11.40;99.90
25208;DHT22;13153;52.316;21.166;2023-03-30T15:59:28;11.40;99.90
25208;DHT22;13153;52.316;21.166;2023-03-30T16:02:02;11.40;99.90
25208;DHT22;13153;52.316;21.166;2023-03-30T16:04:50;11.40;99.90
25208;DHT22;13153;52.316;21.166;2023-03-30T16:07:19;11.30;99.90
25208;DHT22;13153;52.316;21.166;2023-03-30T16:09:46;11.30;99.90
25208;DHT22;13153;52.316;21.166;2023-03-30T16:12:17;11.30;99.90
25208;DHT22;13153;52.316;21.166;2023-03-30T16:14:49;11.20;99.90
25208;DHT22;13153;52.316;21.166;2023-03-30T16:17:16;11.20;99.90
25208;DHT22;13153;52.316;21.166;2023-03-30T16:19:42;11.20;99.90
25208;DHT22;13153;52.316;21.166;2023-03-30T16:22:10;11.20;99.90
25208;DHT22;13153;52.316;21.166;2023-03-30T16:24:37;11.20;99.90
25208;DHT22;13153;52.316;21.166;2023-03-30T16:27:04;11.10;99.90
25208;DHT22;13153;52.316;21.166;2023-03-30T16:29:31;11.00;99.90
25208;DHT22;13153;52.316;21.166;2023-03-30T16:31:58;11.00;99.90
25208;DHT22;13153;52.316;21.166;2023-03-30T16:34:25;11.00;99.90
25208;DHT22;13153;52.316;21.166;2023-03-30T16:36:51;11.00;99.90
25208;DHT22;13153;52.316;21.166;2023-03-30T16:39:20;11.00;99.90
25208;DHT22;13153;52.316;21.166;2023-03-30T16:41:51;10.90;99.90
25208;DHT22;13153;52.316;21.166;2023-03-30T16:44:19;10.90;99.90
25208;DHT22;13153;52.316;21.166;2023-03-30T16:46:47;10.90;99.90
25208;DHT22;13153;52.316;21.166;2023-03-30T16:49:16;10.90;99.90
25208;DHT22;13153;52.316;21.166;2023-03-30T16:51:46;10.90;99.90
25208;DHT22;13153;52.316;21.166;2023-03-30T16:54:12;10.90;99.90
25208;DHT22;13153;52.316;21.166;2023-03-30T16:56:38;10.90;99.90
25208;DHT22;13153;52.316;21.166;2023-03-30T16:59:05;10.90;99.90
25208;DHT22;13153;52.316;21.166;2023-03-30T17:01:47;10.90;99.90
25208;DHT22;13153;52.316;21.166;2023-03-30T17:04:13;10.80;99.90
25208;DHT22;13153;52.316;21.166;2023-03-30T17:06:39;10.80;99.90
25208;DHT22;13153;52.316;21.166;2023-03-30T17:09:07;10.80;99.90
25208;DHT22;13153;52.316;21.166;2023-03-30T17:11:36;10.80;99.90
25208;DHT22;13153;52.316;21.166;2023-03-30T17:14:02;10.80;99.90
25208;DHT22;13153;52.316;21.166;2023-03-30T17:16:28;10.80;99.90
25208;DHT22;13153;52.316;21.166;2023-03-30T17:18:55;10.70;99.90
25208;DHT22;13153;52.316;21.166;2023-03-30T17:21:21;10.70;99.90
25208;DHT22;13153;52.316;21.166;2023-03-30T17:23:47;10.70;99.90
25208;DHT22;13153;52.316;21.166;2023-03-30T17:26:14;10.70;99.90
25208;DHT22;13153;52.316;21.166;2023-03-30T17:28:41;10.60;99.90
25208;DHT22;13153;52.316;21.166;2023-03-30T17:31:20;10.60;99.90
25208;DHT22;13153;52.316;21.166;2023-03-30T17:33:47;10.60;99.90
25208;DHT22;13153;52.316;21.166;2023-03-30T17:36:21;10.60;99.90
25208;DHT22;13153;52.316;21.166;2023-03-30T17:38:49;10.60;99.90
25208;DHT22;13153;52.316;21.166;2023-03-30T17:41:17;10.60;99.90
25208;DHT22;13153;52.316;21.166;2023-03-30T17:43:44;10.60;99.90
25208;DHT22;13153;52.316;21.166;2023-03-30T17:46:13;10.60;99.90
25208;DHT22;13153;52.316;21.166;2023-03-30T17:48:41;10.60;99.90
25208;DHT22;13153;52.316;21.166;2023-03-30T17:51:06;10.50;99.90
25208;DHT22;13153;52.316;21.166;2023-03-30T17:53:32;10.50;99.90
25208;DHT22;13153;52.316;21.166;2023-03-30T17:55:58;10.50;99.90
25208;DHT22;13153;52.316;21.166;2023-03-30T17:58:27;10.50;99.90
25208;DHT22;13153;52.316;21.166;2023-03-30T18:00:59;10.50;99.90
25208;DHT22;13153;52.316;21.166;2023-03-30T18:03:27;10.40;99.90
25208;DHT22;13153;52.316;21.166;2023-03-30T18:05:57;10.50;99.90
25208;DHT22;13153;52.316;21.166;2023-03-30T18:08:25;10.40;99.90